sensor_id;sensor_type;location;lat;lon;timestamp;P1;durP1;ratioP1;P2;durP2;ratioP2
18574;SDS011;9417;16.484;102.872;2023-07-16T00:00:54;14.65;;;9.57;;
18574;SDS011;9417;16.484;102.872;2023-07-16T00:03:03;14.45;;;8.43;;
18574;SDS011;9417;16.484;102.872;2023-07-16T00:05:10;11.77;;;8.13;;
18574;SDS011;9417;16.484;102.872;2023-07-16T00:07:18;12.18;;;8.15;;
18574;SDS011;9417;16.484;102.872;2023-07-16T00:09:26;13.27;;;7.63;;
18574;SDS011;9417;16.484;102.872;2023-07-16T00:11:33;13.50;;;7.68;;
18574;SDS011;9417;16.484;102.872;2023-07-16T00:13:40;14.00;;;7.90;;
18574;SDS011;9417;16.484;102.872;2023-07-16T00:15:50;11.30;;;7.70;;
18574;SDS011;9417;16.484;102.872;2023-07-16T00:17:57;10.30;;;6.82;;
18574;SDS011;9417;16.484;102.872;2023-07-16T00:20:07;13.20;;;7.95;;
18574;SDS011;9417;16.484;102.872;2023-07-16T00:22:15;14.10;;;7.68;;
18574;SDS011;9417;16.484;102.872;2023-07-16T00:24:23;10.57;;;7.88;;
18574;SDS011;9417;16.484;102.872;2023-07-16T00:26:30;13.20;;;8.63;;
18574;SDS011;9417;16.484;102.872;2023-07-16T00:28:37;17.58;;;9.18;;
18574;SDS011;9417;16.484;102.872;2023-07-16T00:30:45;13.95;;;8.57;;
18574;SDS011;9417;16.484;102.872;2023-07-16T00:32:52;13.43;;;8.57;;
18574;SDS011;9417;16.484;102.872;2023-07-16T00:35:00;12.43;;;8.55;;
18574;SDS011;9417;16.484;102.872;2023-07-16T00:37:10;11.52;;;7.88;;
18574;SDS011;9417;16.484;102.872;2023-07-16T00:39:17;14.10;;;7.93;;
18574;SDS011;9417;16.484;102.872;2023-07-16T00:41:24;12.98;;;7.78;;
18574;SDS011;9417;16.484;102.872;2023-07-16T00:43:32;10.35;;;6.80;;
18574;SDS011;9417;16.484;102.872;2023-07-16T00:45:39;11.93;;;6.50;;
18574;SDS011;9417;16.484;102.872;2023-07-16T00:47:47;9.95;;;6.70;;
18574;SDS011;9417;16.484;102.872;2023-07-16T00:49:54;13.88;;;7.03;;
18574;SDS011;9417;16.484;102.872;2023-07-16T00:52:02;11.65;;;6.30;;
18574;SDS011;9417;16.484;102.872;2023-07-16T00:54:12;10.27;;;6.10;;
18574;SDS011;9417;16.484;102.872;2023-07-16T00:56:20;10.68;;;6.40;;
18574;SDS011;9417;16.484;102.872;2023-07-16T00:58:28;11.63;;;5.28;;
18574;SDS011;9417;16.484;102.872;2023-07-16T01:00:35;9.40;;;5.25;;
18574;SDS011;9417;16.484;102.872;2023-07-16T01:02:43;9.48;;;4.90;;
18574;SDS011;9417;16.484;102.872;2023-07-16T01:04:51;6.15;;;4.03;;
18574;SDS011;9417;16.484;102.872;2023-07-16T01:07:00;8.10;;;4.85;;
18574;SDS011;9417;16.484;102.872;2023-07-16T01:11:21;6.95;;;4.57;;
18574;SDS011;9417;16.484;102.872;2023-07-16T01:13:29;9.65;;;4.55;;
18574;SDS011;9417;16.484;102.872;2023-07-16T01:15:37;9.98;;;4.63;;
18574;SDS011;9417;16.484;102.872;2023-07-16T01:17:44;10.25;;;4.47;;
18574;SDS011;9417;16.484;102.872;2023-07-16T01:19:52;7.78;;;4.40;;
18574;SDS011;9417;16.484;102.872;2023-07-16T01:22:02;6.45;;;4.20;;
18574;SDS011;9417;16.484;102.872;2023-07-16T01:24:35;7.32;;;4.32;;
18574;SDS011;9417;16.484;102.872;2023-07-16T01:27:11;9.13;;;4.88;;
18574;SDS011;9417;16.484;102.872;2023-07-16T01:29:30;9.90;;;4.90;;
18574;SDS011;9417;16.484;102.872;2023-07-16T01:31:39;6.43;;;4.82;;
18574;SDS011;9417;16.484;102.872;2023-07-16T01:33:48;8.18;;;4.60;;
18574;SDS011;9417;16.484;102.872;2023-07-16T01:35:57;6.28;;;4.50;;
18574;SDS011;9417;16.484;102.872;2023-07-16T01:38:05;8.02;;;4.50;;
18574;SDS011;9417;16.484;102.872;2023-07-16T01:40:13;7.00;;;5.00;;
18574;SDS011;9417;16.484;102.872;2023-07-16T01:42:21;8.30;;;4.95;;
18574;SDS011;9417;16.484;102.872;2023-07-16T01:44:30;10.15;;;5.55;;
18574;SDS011;9417;16.484;102.872;2023-07-16T01:46:37;7.70;;;5.05;;
18574;SDS011;9417;16.484;102.872;2023-07-16T01:48:45;9.02;;;4.78;;
18574;SDS011;9417;16.484;102.872;2023-07-16T01:50:51;8.70;;;5.30;;
18574;SDS011;9417;16.484;102.872;2023-07-16T01:52:59;6.55;;;4.65;;
18574;SDS011;9417;16.484;102.872;2023-07-16T01:55:06;10.10;;;5.22;;
18574;SDS011;9417;16.484;102.872;2023-07-16T01:57:13;9.35;;;5.15;;
18574;SDS011;9417;16.484;102.872;2023-07-16T01:59:20;10.13;;;4.78;;
18574;SDS011;9417;16.484;102.872;2023-07-16T02:01:32;7.75;;;4.90;;
18574;SDS011;9417;16.484;102.872;2023-07-16T02:03:39;9.95;;;5.00;;
18574;SDS011;9417;16.484;102.872;2023-07-16T02:05:47;7.70;;;5.07;;
18574;SDS011;9417;16.484;102.872;2023-07-16T02:07:54;8.68;;;5.07;;
18574;SDS011;9417;16.484;102.872;2023-07-16T02:10:02;7.40;;;4.85;;
18574;SDS011;9417;16.484;102.872;2023-07-16T02:12:09;9.98;;;4.95;;
18574;SDS011;9417;16.484;102.872;2023-07-16T02:14:17;8.45;;;5.30;;
18574;SDS011;9417;16.484;102.872;2023-07-16T02:16:24;8.65;;;4.85;;
18574;SDS011;9417;16.484;102.872;2023-07-16T02:18:34;13.45;;;12.20;;
18574;SDS011;9417;16.484;102.872;2023-07-16T02:20:41;13.60;;;12.48;;
18574;SDS011;9417;16.484;102.872;2023-07-16T02:22:49;15.93;;;14.73;;
18574;SDS011;9417;16.484;102.872;2023-07-16T02:24:56;7.53;;;4.68;;
18574;SDS011;9417;16.484;102.872;2023-07-16T02:27:04;9.75;;;5.15;;
18574;SDS011;9417;16.484;102.872;2023-07-16T02:29:12;17.30;;;15.77;;
18574;SDS011;9417;16.484;102.872;2023-07-16T02:31:19;8.93;;;4.82;;
18574;SDS011;9417;16.484;102.872;2023-07-16T02:33:26;10.98;;;4.70;;
18574;SDS011;9417;16.484;102.872;2023-07-16T02:35:36;9.43;;;4.55;;
18574;SDS011;9417;16.484;102.872;2023-07-16T02:37:43;12.75;;;11.32;;
18574;SDS011;9417;16.484;102.872;2023-07-16T02:39:50;14.95;;;12.65;;
18574;SDS011;9417;16.484;102.872;2023-07-16T02:41:58;13.93;;;12.63;;
18574;SDS011;9417;16.484;102.872;2023-07-16T02:44:05;13.30;;;12.10;;
18574;SDS011;9417;16.484;102.872;2023-07-16T02:46:16;10.65;;;4.53;;
18574;SDS011;9417;16.484;102.872;2023-07-16T02:48:24;10.73;;;4.93;;
18574;SDS011;9417;16.484;102.872;2023-07-16T02:50:33;8.55;;;4.90;;
18574;SDS011;9417;16.484;102.872;2023-07-16T02:52:42;12.15;;;9.98;;
18574;SDS011;9417;16.484;102.872;2023-07-16T02:54:49;6.78;;;4.13;;
18574;SDS011;9417;16.484;102.872;2023-07-16T02:56:57;9.27;;;4.55;;
18574;SDS011;9417;16.484;102.872;2023-07-16T02:59:04;6.50;;;4.43;;
18574;SDS011;9417;16.484;102.872;2023-07-16T03:01:12;9.52;;;4.88;;
18574;SDS011;9417;16.484;102.872;2023-07-16T03:03:20;7.57;;;4.55;;
18574;SDS011;9417;16.484;102.872;2023-07-16T03:05:37;8.85;;;4.82;;
18574;SDS011;9417;16.484;102.872;2023-07-16T03:07:44;6.82;;;4.70;;
18574;SDS011;9417;16.484;102.872;2023-07-16T03:09:52;6.10;;;4.75;;
18574;SDS011;9417;16.484;102.872;2023-07-16T03:11:59;8.35;;;4.85;;
18574;SDS011;9417;16.484;102.872;2023-07-16T03:14:06;8.80;;;4.25;;
18574;SDS011;9417;16.484;102.872;2023-07-16T03:16:14;10.48;;;4.13;;
18574;SDS011;9417;16.484;102.872;2023-07-16T03:18:21;7.43;;;4.07;;
18574;SDS011;9417;16.484;102.872;2023-07-16T03:20:33;6.60;;;4.32;;
18574;SDS011;9417;16.484;102.872;2023-07-16T03:22:42;8.38;;;4.03;;
18574;SDS011;9417;16.484;102.872;2023-07-16T03:24:50;6.35;;;4.38;;
18574;SDS011;9417;16.484;102.872;2023-07-16T03:26:58;7.80;;;3.83;;
18574;SDS011;9417;16.484;102.872;2023-07-16T03:29:20;6.55;;;3.80;;
18574;SDS011;9417;16.484;102.872;2023-07-16T03:31:28;5.50;;;3.17;;
18574;SDS011;9417;16.484;102.872;2023-07-16T03:33:35;6.82;;;3.72;;
18574;SDS011;9417;16.484;102.872;2023-07-16T03:35:43;4.15;;;3.30;;
18574;SDS011;9417;16.484;102.872;2023-07-16T03:37:55;6.20;;;3.45;;
18574;SDS011;9417;16.484;102.872;2023-07-16T03:40:12;6.80;;;3.60;;
18574;SDS011;9417;16.484;102.872;2023-07-16T03:42:21;6.60;;;3.60;;
18574;SDS011;9417;16.484;102.872;2023-07-16T03:44:29;10.38;;;4.20;;
18574;SDS011;9417;16.484;102.872;2023-07-16T03:46:38;6.20;;;3.45;;
18574;SDS011;9417;16.484;102.872;2023-07-16T03:48:45;5.50;;;3.40;;
18574;SDS011;9417;16.484;102.872;2023-07-16T03:50:52;6.55;;;3.33;;
18574;SDS011;9417;16.484;102.872;2023-07-16T03:53:04;5.30;;;3.50;;
18574;SDS011;9417;16.484;102.872;2023-07-16T03:55:11;5.93;;;3.33;;
18574;SDS011;9417;16.484;102.872;2023-07-16T03:57:19;6.50;;;3.55;;
18574;SDS011;9417;16.484;102.872;2023-07-16T03:59:26;6.57;;;3.80;;
18574;SDS011;9417;16.484;102.872;2023-07-16T04:01:35;6.47;;;3.83;;
18574;SDS011;9417;16.484;102.872;2023-07-16T04:03:44;8.18;;;3.67;;
18574;SDS011;9417;16.484;102.872;2023-07-16T04:05:51;7.25;;;3.30;;
18574;SDS011;9417;16.484;102.872;2023-07-16T04:08:08;9.65;;;3.42;;
18574;SDS011;9417;16.484;102.872;2023-07-16T04:10:16;6.70;;;3.85;;
18574;SDS011;9417;16.484;102.872;2023-07-16T04:12:21;6.55;;;3.75;;
18574;SDS011;9417;16.484;102.872;2023-07-16T04:14:29;7.38;;;3.70;;
18574;SDS011;9417;16.484;102.872;2023-07-16T04:16:36;6.53;;;3.67;;
18574;SDS011;9417;16.484;102.872;2023-07-16T04:18:44;6.13;;;3.90;;
18574;SDS011;9417;16.484;102.872;2023-07-16T04:20:51;6.03;;;3.88;;
18574;SDS011;9417;16.484;102.872;2023-07-16T04:22:58;6.72;;;4.22;;
18574;SDS011;9417;16.484;102.872;2023-07-16T04:25:08;5.82;;;3.95;;
18574;SDS011;9417;16.484;102.872;2023-07-16T04:27:15;6.15;;;3.60;;
18574;SDS011;9417;16.484;102.872;2023-07-16T04:29:23;6.63;;;3.78;;
18574;SDS011;9417;16.484;102.872;2023-07-16T04:31:30;8.13;;;4.30;;
18574;SDS011;9417;16.484;102.872;2023-07-16T04:33:37;6.10;;;3.75;;
18574;SDS011;9417;16.484;102.872;2023-07-16T04:35:44;7.05;;;4.07;;
18574;SDS011;9417;16.484;102.872;2023-07-16T04:37:52;5.45;;;3.65;;
18574;SDS011;9417;16.484;102.872;2023-07-16T04:39:59;10.23;;;4.65;;
18574;SDS011;9417;16.484;102.872;2023-07-16T04:42:09;6.63;;;3.75;;
18574;SDS011;9417;16.484;102.872;2023-07-16T04:44:15;5.82;;;3.88;;
18574;SDS011;9417;16.484;102.872;2023-07-16T04:46:22;6.82;;;3.70;;
18574;SDS011;9417;16.484;102.872;2023-07-16T04:48:28;8.15;;;3.78;;
18574;SDS011;9417;16.484;102.872;2023-07-16T04:50:36;8.20;;;4.20;;
18574;SDS011;9417;16.484;102.872;2023-07-16T04:52:44;6.95;;;3.90;;
18574;SDS011;9417;16.484;102.872;2023-07-16T04:54:51;5.50;;;3.80;;
18574;SDS011;9417;16.484;102.872;2023-07-16T04:56:58;6.15;;;3.70;;
18574;SDS011;9417;16.484;102.872;2023-07-16T04:59:07;6.20;;;3.55;;
18574;SDS011;9417;16.484;102.872;2023-07-16T05:01:15;5.88;;;3.80;;
18574;SDS011;9417;16.484;102.872;2023-07-16T05:03:24;7.97;;;4.22;;
18574;SDS011;9417;16.484;102.872;2023-07-16T05:05:31;5.32;;;3.58;;
18574;SDS011;9417;16.484;102.872;2023-07-16T05:07:39;4.80;;;3.53;;
18574;SDS011;9417;16.484;102.872;2023-07-16T05:09:46;8.63;;;4.15;;
18574;SDS011;9417;16.484;102.872;2023-07-16T05:11:53;5.80;;;3.38;;
18574;SDS011;9417;16.484;102.872;2023-07-16T05:14:01;5.55;;;3.50;;
18574;SDS011;9417;16.484;102.872;2023-07-16T05:16:10;8.00;;;3.58;;
18574;SDS011;9417;16.484;102.872;2023-07-16T05:18:18;6.35;;;3.90;;
18574;SDS011;9417;16.484;102.872;2023-07-16T05:20:26;5.30;;;3.40;;
18574;SDS011;9417;16.484;102.872;2023-07-16T05:22:33;4.78;;;3.22;;
18574;SDS011;9417;16.484;102.872;2023-07-16T05:24:41;5.82;;;4.28;;
18574;SDS011;9417;16.484;102.872;2023-07-16T05:26:48;6.53;;;3.72;;
18574;SDS011;9417;16.484;102.872;2023-07-16T05:28:57;5.47;;;3.60;;
18574;SDS011;9417;16.484;102.872;2023-07-16T05:31:05;6.30;;;3.67;;
18574;SDS011;9417;16.484;102.872;2023-07-16T05:33:14;5.00;;;3.88;;
18574;SDS011;9417;16.484;102.872;2023-07-16T05:35:21;5.93;;;4.00;;
18574;SDS011;9417;16.484;102.872;2023-07-16T05:37:28;7.45;;;4.32;;
18574;SDS011;9417;16.484;102.872;2023-07-16T05:39:36;5.22;;;3.78;;
18574;SDS011;9417;16.484;102.872;2023-07-16T05:41:44;5.60;;;3.88;;
18574;SDS011;9417;16.484;102.872;2023-07-16T05:43:51;6.82;;;3.55;;
18574;SDS011;9417;16.484;102.872;2023-07-16T05:45:58;6.43;;;4.10;;
18574;SDS011;9417;16.484;102.872;2023-07-16T05:48:06;5.40;;;3.40;;
18574;SDS011;9417;16.484;102.872;2023-07-16T05:50:15;6.30;;;3.90;;
18574;SDS011;9417;16.484;102.872;2023-07-16T05:52:22;4.35;;;3.03;;
18574;SDS011;9417;16.484;102.872;2023-07-16T05:54:30;6.68;;;3.35;;
18574;SDS011;9417;16.484;102.872;2023-07-16T05:56:37;5.55;;;3.40;;
18574;SDS011;9417;16.484;102.872;2023-07-16T05:58:44;5.47;;;3.75;;
18574;SDS011;9417;16.484;102.872;2023-07-16T06:00:52;6.93;;;3.63;;
18574;SDS011;9417;16.484;102.872;2023-07-16T06:02:59;7.57;;;3.20;;
18574;SDS011;9417;16.484;102.872;2023-07-16T06:05:07;4.22;;;2.92;;
18574;SDS011;9417;16.484;102.872;2023-07-16T06:07:17;6.72;;;3.85;;
18574;SDS011;9417;16.484;102.872;2023-07-16T06:09:24;7.43;;;3.50;;
18574;SDS011;9417;16.484;102.872;2023-07-16T06:11:31;5.95;;;3.47;;
18574;SDS011;9417;16.484;102.872;2023-07-16T06:13:38;5.40;;;3.85;;
18574;SDS011;9417;16.484;102.872;2023-07-16T06:15:46;5.97;;;3.72;;
18574;SDS011;9417;16.484;102.872;2023-07-16T06:17:54;6.45;;;4.28;;
18574;SDS011;9417;16.484;102.872;2023-07-16T06:20:02;8.27;;;3.92;;
18574;SDS011;9417;16.484;102.872;2023-07-16T06:22:09;6.40;;;3.35;;
18574;SDS011;9417;16.484;102.872;2023-07-16T06:24:18;6.70;;;3.70;;
18574;SDS011;9417;16.484;102.872;2023-07-16T06:26:26;5.72;;;3.97;;
18574;SDS011;9417;16.484;102.872;2023-07-16T06:28:32;5.13;;;3.65;;
18574;SDS011;9417;16.484;102.872;2023-07-16T06:30:39;5.00;;;3.70;;
18574;SDS011;9417;16.484;102.872;2023-07-16T06:32:47;5.28;;;3.42;;
18574;SDS011;9417;16.484;102.872;2023-07-16T06:34:54;7.55;;;3.60;;
18574;SDS011;9417;16.484;102.872;2023-07-16T06:37:02;5.78;;;3.55;;
18574;SDS011;9417;16.484;102.872;2023-07-16T06:39:09;6.65;;;3.55;;
18574;SDS011;9417;16.484;102.872;2023-07-16T06:41:19;6.95;;;4.03;;
18574;SDS011;9417;16.484;102.872;2023-07-16T06:43:27;7.97;;;3.80;;
18574;SDS011;9417;16.484;102.872;2023-07-16T06:45:34;7.22;;;3.70;;
18574;SDS011;9417;16.484;102.872;2023-07-16T06:47:41;7.47;;;4.35;;
18574;SDS011;9417;16.484;102.872;2023-07-16T06:49:49;5.15;;;4.30;;
18574;SDS011;9417;16.484;102.872;2023-07-16T06:51:56;7.65;;;4.13;;
18574;SDS011;9417;16.484;102.872;2023-07-16T06:54:03;6.97;;;3.70;;
18574;SDS011;9417;16.484;102.872;2023-07-16T06:56:11;5.68;;;4.10;;
18574;SDS011;9417;16.484;102.872;2023-07-16T06:58:23;6.97;;;3.95;;
18574;SDS011;9417;16.484;102.872;2023-07-16T07:00:37;6.95;;;3.72;;
18574;SDS011;9417;16.484;102.872;2023-07-16T07:02:44;5.03;;;4.00;;
18574;SDS011;9417;16.484;102.872;2023-07-16T07:04:52;5.70;;;3.67;;
18574;SDS011;9417;16.484;102.872;2023-07-16T07:06:59;8.82;;;3.70;;
18574;SDS011;9417;16.484;102.872;2023-07-16T07:09:06;6.50;;;4.22;;
18574;SDS011;9417;16.484;102.872;2023-07-16T07:11:14;7.40;;;3.72;;
18574;SDS011;9417;16.484;102.872;2023-07-16T07:13:23;6.72;;;3.75;;
18574;SDS011;9417;16.484;102.872;2023-07-16T07:15:31;6.47;;;3.78;;
18574;SDS011;9417;16.484;102.872;2023-07-16T07:17:38;5.82;;;3.80;;
18574;SDS011;9417;16.484;102.872;2023-07-16T07:19:46;5.15;;;3.47;;
18574;SDS011;9417;16.484;102.872;2023-07-16T07:21:53;5.05;;;3.67;;
18574;SDS011;9417;16.484;102.872;2023-07-16T07:24:00;8.13;;;3.97;;
18574;SDS011;9417;16.484;102.872;2023-07-16T07:26:08;5.95;;;3.25;;
18574;SDS011;9417;16.484;102.872;2023-07-16T07:28:15;5.25;;;3.80;;
18574;SDS011;9417;16.484;102.872;2023-07-16T07:30:24;4.65;;;3.72;;
18574;SDS011;9417;16.484;102.872;2023-07-16T07:32:32;5.38;;;3.83;;
18574;SDS011;9417;16.484;102.872;2023-07-16T07:34:42;6.45;;;4.43;;
18574;SDS011;9417;16.484;102.872;2023-07-16T07:36:49;8.18;;;3.80;;
18574;SDS011;9417;16.484;102.872;2023-07-16T07:38:57;6.97;;;3.70;;
18574;SDS011;9417;16.484;102.872;2023-07-16T07:41:04;5.18;;;3.80;;
18574;SDS011;9417;16.484;102.872;2023-07-16T07:43:12;8.10;;;4.28;;
18574;SDS011;9417;16.484;102.872;2023-07-16T07:45:19;4.70;;;3.80;;
18574;SDS011;9417;16.484;102.872;2023-07-16T07:47:28;3.88;;;3.40;;
18574;SDS011;9417;16.484;102.872;2023-07-16T07:49:35;4.47;;;3.50;;
18574;SDS011;9417;16.484;102.872;2023-07-16T07:51:42;6.93;;;4.10;;
18574;SDS011;9417;16.484;102.872;2023-07-16T07:53:52;7.28;;;4.25;;
18574;SDS011;9417;16.484;102.872;2023-07-16T07:55:59;6.50;;;3.42;;
18574;SDS011;9417;16.484;102.872;2023-07-16T07:58:07;5.13;;;3.53;;
18574;SDS011;9417;16.484;102.872;2023-07-16T08:00:14;5.43;;;3.75;;
18574;SDS011;9417;16.484;102.872;2023-07-16T08:02:22;6.13;;;4.10;;
18574;SDS011;9417;16.484;102.872;2023-07-16T08:04:32;6.63;;;3.65;;
18574;SDS011;9417;16.484;102.872;2023-07-16T08:06:39;7.60;;;4.18;;
18574;SDS011;9417;16.484;102.872;2023-07-16T08:08:46;5.57;;;3.67;;
18574;SDS011;9417;16.484;102.872;2023-07-16T08:10:54;7.07;;;3.58;;
18574;SDS011;9417;16.484;102.872;2023-07-16T08:13:02;8.75;;;4.05;;
18574;SDS011;9417;16.484;102.872;2023-07-16T08:15:10;4.35;;;3.80;;
18574;SDS011;9417;16.484;102.872;2023-07-16T08:17:18;7.90;;;4.03;;
18574;SDS011;9417;16.484;102.872;2023-07-16T08:19:26;5.00;;;3.65;;
18574;SDS011;9417;16.484;102.872;2023-07-16T08:21:35;4.35;;;3.63;;
18574;SDS011;9417;16.484;102.872;2023-07-16T08:23:43;5.20;;;3.85;;
18574;SDS011;9417;16.484;102.872;2023-07-16T08:25:50;5.53;;;4.10;;
18574;SDS011;9417;16.484;102.872;2023-07-16T08:27:58;6.88;;;4.50;;
18574;SDS011;9417;16.484;102.872;2023-07-16T08:30:07;5.28;;;4.28;;
18574;SDS011;9417;16.484;102.872;2023-07-16T08:32:15;5.75;;;4.00;;
18574;SDS011;9417;16.484;102.872;2023-07-16T08:34:22;5.03;;;3.95;;
18574;SDS011;9417;16.484;102.872;2023-07-16T08:36:30;5.88;;;3.95;;
18574;SDS011;9417;16.484;102.872;2023-07-16T08:38:40;3.95;;;3.38;;
18574;SDS011;9417;16.484;102.872;2023-07-16T08:40:47;3.78;;;3.20;;
18574;SDS011;9417;16.484;102.872;2023-07-16T08:42:55;5.68;;;3.35;;
18574;SDS011;9417;16.484;102.872;2023-07-16T08:45:04;5.90;;;3.78;;
18574;SDS011;9417;16.484;102.872;2023-07-16T08:47:13;4.60;;;3.40;;
18574;SDS011;9417;16.484;102.872;2023-07-16T08:49:20;7.18;;;4.70;;
18574;SDS011;9417;16.484;102.872;2023-07-16T08:51:29;7.70;;;4.63;;
18574;SDS011;9417;16.484;102.872;2023-07-16T08:53:37;5.40;;;3.70;;
18574;SDS011;9417;16.484;102.872;2023-07-16T08:55:46;6.88;;;3.75;;
18574;SDS011;9417;16.484;102.872;2023-07-16T08:57:57;5.78;;;4.32;;
18574;SDS011;9417;16.484;102.872;2023-07-16T09:00:05;6.13;;;4.03;;
18574;SDS011;9417;16.484;102.872;2023-07-16T09:02:13;7.13;;;4.53;;
18574;SDS011;9417;16.484;102.872;2023-07-16T09:04:22;6.20;;;4.65;;
18574;SDS011;9417;16.484;102.872;2023-07-16T09:06:30;4.68;;;3.38;;
18574;SDS011;9417;16.484;102.872;2023-07-16T09:08:37;4.85;;;3.70;;
18574;SDS011;9417;16.484;102.872;2023-07-16T09:10:53;11.65;;;7.95;;
18574;SDS011;9417;16.484;102.872;2023-07-16T09:13:00;10.10;;;6.55;;
18574;SDS011;9417;16.484;102.872;2023-07-16T09:15:08;9.18;;;6.20;;
18574;SDS011;9417;16.484;102.872;2023-07-16T09:17:19;6.97;;;4.55;;
18574;SDS011;9417;16.484;102.872;2023-07-16T09:19:31;5.97;;;4.25;;
18574;SDS011;9417;16.484;102.872;2023-07-16T09:21:38;5.55;;;3.72;;
18574;SDS011;9417;16.484;102.872;2023-07-16T09:23:47;5.25;;;3.20;;
18574;SDS011;9417;16.484;102.872;2023-07-16T09:25:56;6.63;;;3.63;;
18574;SDS011;9417;16.484;102.872;2023-07-16T09:28:04;6.28;;;3.90;;
18574;SDS011;9417;16.484;102.872;2023-07-16T09:30:15;5.28;;;3.90;;
18574;SDS011;9417;16.484;102.872;2023-07-16T09:32:22;5.85;;;3.72;;
18574;SDS011;9417;16.484;102.872;2023-07-16T09:34:37;6.10;;;4.00;;
18574;SDS011;9417;16.484;102.872;2023-07-16T09:36:47;7.30;;;3.40;;
18574;SDS011;9417;16.484;102.872;2023-07-16T09:38:56;6.35;;;3.78;;
18574;SDS011;9417;16.484;102.872;2023-07-16T09:41:04;4.88;;;3.78;;
18574;SDS011;9417;16.484;102.872;2023-07-16T09:43:12;4.95;;;3.70;;
18574;SDS011;9417;16.484;102.872;2023-07-16T09:45:20;6.18;;;3.67;;
18574;SDS011;9417;16.484;102.872;2023-07-16T09:47:27;10.10;;;4.55;;
18574;SDS011;9417;16.484;102.872;2023-07-16T09:49:33;11.13;;;4.75;;
18574;SDS011;9417;16.484;102.872;2023-07-16T09:51:40;8.15;;;4.25;;
18574;SDS011;9417;16.484;102.872;2023-07-16T09:53:50;16.02;;;6.65;;
18574;SDS011;9417;16.484;102.872;2023-07-16T09:56:01;17.80;;;6.60;;
18574;SDS011;9417;16.484;102.872;2023-07-16T09:58:10;9.23;;;4.95;;
18574;SDS011;9417;16.484;102.872;2023-07-16T10:00:17;6.90;;;4.45;;
18574;SDS011;9417;16.484;102.872;2023-07-16T10:02:25;6.68;;;4.53;;
18574;SDS011;9417;16.484;102.872;2023-07-16T10:04:37;6.50;;;4.95;;
18574;SDS011;9417;16.484;102.872;2023-07-16T10:06:49;16.08;;;7.28;;
18574;SDS011;9417;16.484;102.872;2023-07-16T10:09:00;33.72;;;12.30;;
18574;SDS011;9417;16.484;102.872;2023-07-16T10:11:17;8.52;;;5.07;;
18574;SDS011;9417;16.484;102.872;2023-07-16T10:13:24;8.02;;;4.20;;
18574;SDS011;9417;16.484;102.872;2023-07-16T10:15:32;7.15;;;5.50;;
18574;SDS011;9417;16.484;102.872;2023-07-16T10:17:49;8.20;;;5.40;;
18574;SDS011;9417;16.484;102.872;2023-07-16T10:19:58;8.30;;;5.45;;
18574;SDS011;9417;16.484;102.872;2023-07-16T10:22:08;14.40;;;7.18;;
18574;SDS011;9417;16.484;102.872;2023-07-16T10:24:16;8.88;;;5.45;;
18574;SDS011;9417;16.484;102.872;2023-07-16T10:26:27;5.90;;;4.85;;
18574;SDS011;9417;16.484;102.872;2023-07-16T10:28:36;6.10;;;4.75;;
18574;SDS011;9417;16.484;102.872;2023-07-16T10:30:44;5.35;;;4.28;;
18574;SDS011;9417;16.484;102.872;2023-07-16T10:32:55;5.22;;;3.95;;
18574;SDS011;9417;16.484;102.872;2023-07-16T10:35:04;5.00;;;4.00;;
18574;SDS011;9417;16.484;102.872;2023-07-16T10:37:13;5.63;;;4.25;;
18574;SDS011;9417;16.484;102.872;2023-07-16T10:39:19;4.72;;;4.05;;
18574;SDS011;9417;16.484;102.872;2023-07-16T10:41:28;6.05;;;4.10;;
18574;SDS011;9417;16.484;102.872;2023-07-16T10:43:36;5.97;;;3.90;;
18574;SDS011;9417;16.484;102.872;2023-07-16T10:45:43;5.50;;;3.42;;
18574;SDS011;9417;16.484;102.872;2023-07-16T10:47:51;5.60;;;3.70;;
18574;SDS011;9417;16.484;102.872;2023-07-16T10:50:00;5.32;;;3.60;;
18574;SDS011;9417;16.484;102.872;2023-07-16T10:52:09;5.07;;;3.72;;
18574;SDS011;9417;16.484;102.872;2023-07-16T10:54:16;6.03;;;4.18;;
18574;SDS011;9417;16.484;102.872;2023-07-16T10:56:29;5.28;;;3.60;;
18574;SDS011;9417;16.484;102.872;2023-07-16T10:58:39;4.60;;;3.38;;
18574;SDS011;9417;16.484;102.872;2023-07-16T11:00:46;4.97;;;3.85;;
18574;SDS011;9417;16.484;102.872;2023-07-16T11:02:54;5.93;;;4.10;;
18574;SDS011;9417;16.484;102.872;2023-07-16T11:05:02;5.85;;;3.90;;
18574;SDS011;9417;16.484;102.872;2023-07-16T11:07:10;7.05;;;4.68;;
18574;SDS011;9417;16.484;102.872;2023-07-16T11:09:18;5.97;;;4.05;;
18574;SDS011;9417;16.484;102.872;2023-07-16T11:11:30;10.32;;;6.68;;
18574;SDS011;9417;16.484;102.872;2023-07-16T11:13:37;9.02;;;6.20;;
18574;SDS011;9417;16.484;102.872;2023-07-16T11:15:48;8.60;;;5.95;;
18574;SDS011;9417;16.484;102.872;2023-07-16T11:17:55;9.10;;;6.20;;
18574;SDS011;9417;16.484;102.872;2023-07-16T11:20:03;6.57;;;5.28;;
18574;SDS011;9417;16.484;102.872;2023-07-16T11:22:12;7.60;;;5.32;;
18574;SDS011;9417;16.484;102.872;2023-07-16T11:24:20;5.97;;;5.15;;
18574;SDS011;9417;16.484;102.872;2023-07-16T11:26:30;8.52;;;5.18;;
18574;SDS011;9417;16.484;102.872;2023-07-16T11:28:38;9.20;;;4.78;;
18574;SDS011;9417;16.484;102.872;2023-07-16T11:30:46;7.28;;;4.88;;
18574;SDS011;9417;16.484;102.872;2023-07-16T11:32:57;7.40;;;4.95;;
18574;SDS011;9417;16.484;102.872;2023-07-16T11:35:05;6.65;;;4.88;;
18574;SDS011;9417;16.484;102.872;2023-07-16T11:37:13;8.50;;;5.15;;
18574;SDS011;9417;16.484;102.872;2023-07-16T11:39:22;6.20;;;4.70;;
18574;SDS011;9417;16.484;102.872;2023-07-16T11:41:36;8.30;;;4.90;;
18574;SDS011;9417;16.484;102.872;2023-07-16T11:43:43;8.43;;;5.22;;
18574;SDS011;9417;16.484;102.872;2023-07-16T11:45:50;13.95;;;6.68;;
18574;SDS011;9417;16.484;102.872;2023-07-16T11:47:58;11.80;;;6.10;;
18574;SDS011;9417;16.484;102.872;2023-07-16T11:50:05;13.57;;;6.90;;
18574;SDS011;9417;16.484;102.872;2023-07-16T11:52:13;15.88;;;8.65;;
18574;SDS011;9417;16.484;102.872;2023-07-16T11:54:24;11.57;;;6.95;;
18574;SDS011;9417;16.484;102.872;2023-07-16T11:56:31;12.15;;;6.53;;
18574;SDS011;9417;16.484;102.872;2023-07-16T11:58:40;24.35;;;10.55;;
18574;SDS011;9417;16.484;102.872;2023-07-16T12:00:47;20.95;;;9.38;;
18574;SDS011;9417;16.484;102.872;2023-07-16T12:02:55;10.43;;;6.95;;
18574;SDS011;9417;16.484;102.872;2023-07-16T12:05:03;13.90;;;7.63;;
18574;SDS011;9417;16.484;102.872;2023-07-16T12:07:12;10.30;;;9.27;;
18574;SDS011;9417;16.484;102.872;2023-07-16T12:09:20;12.50;;;8.07;;
18574;SDS011;9417;16.484;102.872;2023-07-16T12:11:27;10.75;;;6.05;;
18574;SDS011;9417;16.484;102.872;2023-07-16T12:13:35;9.20;;;6.05;;
18574;SDS011;9417;16.484;102.872;2023-07-16T12:15:43;11.48;;;6.25;;
18574;SDS011;9417;16.484;102.872;2023-07-16T12:17:51;10.65;;;6.05;;
18574;SDS011;9417;16.484;102.872;2023-07-16T12:19:58;10.70;;;6.30;;
18574;SDS011;9417;16.484;102.872;2023-07-16T12:22:04;9.77;;;6.45;;
18574;SDS011;9417;16.484;102.872;2023-07-16T12:24:11;9.25;;;6.13;;
18574;SDS011;9417;16.484;102.872;2023-07-16T12:26:19;11.02;;;6.95;;
18574;SDS011;9417;16.484;102.872;2023-07-16T12:28:26;9.98;;;6.38;;
18574;SDS011;9417;16.484;102.872;2023-07-16T12:30:33;8.68;;;6.18;;
18574;SDS011;9417;16.484;102.872;2023-07-16T12:32:42;11.70;;;6.72;;
18574;SDS011;9417;16.484;102.872;2023-07-16T12:34:50;9.80;;;6.55;;
18574;SDS011;9417;16.484;102.872;2023-07-16T12:36:58;11.82;;;6.53;;
18574;SDS011;9417;16.484;102.872;2023-07-16T12:39:06;8.30;;;6.38;;
18574;SDS011;9417;16.484;102.872;2023-07-16T12:41:13;8.13;;;5.90;;